createdAt,value
2022-10-20T02:02:56.631Z,25.33
2022-10-20T08:25:18.940Z,24.85
2022-10-20T08:30:23.759Z,23.77
2022-10-20T08:32:52.842Z,22.73
2022-10-20T08:35:20.949Z,23.50
2022-10-20T08:37:47.687Z,26.13
2022-10-20T08:40:20.137Z,24.17
2022-10-20T08:42:49.754Z,25.33
2022-10-20T08:47:45.430Z,28.02
2022-10-20T08:50:13.363Z,24.05
2022-10-20T08:52:41.105Z,22.10
2022-10-20T08:55:08.540Z,27.00
2022-10-20T08:57:36.490Z,21.63
2022-10-20T09:00:21.185Z,21.75
2022-10-20T09:02:48.937Z,24.85
2022-10-20T09:05:19.126Z,26.63
2022-10-20T09:07:46.196Z,27.52
2022-10-20T09:10:51.975Z,18.52
2022-10-20T09:13:26.884Z,25.75
2022-10-20T09:16:18.283Z,21.42
2022-10-20T09:18:56.801Z,23.25
2022-10-20T09:21:25.512Z,23.17
2022-10-20T09:23:53.433Z,25.90
2022-10-20T09:26:37.325Z,26.33
2022-10-20T09:29:22.111Z,21.80
2022-10-20T09:31:49.466Z,24.15
2022-10-20T09:34:58.602Z,25.80
2022-10-20T09:37:25.348Z,23.33
2022-10-20T09:39:56.653Z,26.45
2022-10-20T09:42:26.738Z,26.98
2022-10-20T09:45:12.527Z,25.52
2022-10-20T09:47:42.708Z,26.42
2022-10-20T09:50:22.295Z,35.70
2022-10-20T09:52:50.394Z,29.13
2022-10-20T09:55:24.146Z,34.25
2022-10-20T09:57:50.819Z,35.40
2022-10-20T10:00:37.306Z,33.97
2022-10-20T10:03:10.813Z,40.45
2022-10-20T10:05:37.757Z,35.15
2022-10-20T10:08:04.559Z,34.03
2022-10-20T10:10:31.659Z,41.63
2022-10-20T10:12:59.770Z,37.83
2022-10-20T10:15:30.431Z,42.03
2022-10-20T10:17:57.142Z,37.05
2022-10-20T10:20:35.122Z,37.10
2022-10-20T10:23:29.050Z,33.97
2022-10-20T10:25:59.239Z,37.00
2022-10-20T10:28:37.106Z,39.13
2022-10-20T10:31:21.095Z,39.20
2022-10-20T10:33:50.087Z,37.33
2022-10-20T10:36:32.218Z,39.60
2022-10-20T10:38:58.985Z,36.20
2022-10-20T10:41:55.844Z,37.38
2022-10-20T10:45:03.578Z,34.63
2022-10-20T10:47:57.557Z,32.78
2022-10-20T10:50:29.731Z,36.35
2022-10-20T10:53:27.379Z,35.08
2022-10-20T10:56:25.100Z,34.95
2022-10-20T16:39:26.273Z,5.57
2022-10-20T16:41:53.308Z,8.82
2022-10-20T16:47:11.841Z,7.68
2022-10-20T16:49:38.533Z,10.80
2022-10-20T16:52:05.487Z,8.00
2022-10-20T16:54:32.158Z,6.32
2022-10-20T16:56:58.827Z,16.63
2022-10-20T16:59:25.531Z,12.68
2022-10-20T17:01:53.513Z,7.53
2022-10-20T17:04:20.195Z,11.25
2022-10-20T17:06:46.943Z,8.80
2022-10-20T17:09:13.602Z,6.88
2022-10-20T17:11:40.329Z,9.80
2022-10-20T17:14:08.142Z,10.35
2022-10-20T17:16:34.902Z,11.55
2022-10-20T17:19:03.005Z,6.50
2022-10-20T17:21:33.183Z,11.30
2022-10-20T17:24:00.185Z,12.10
2022-10-20T17:26:28.494Z,16.45
2022-10-20T17:28:57.890Z,17.80
2022-10-20T17:33:54.288Z,16.80
2022-10-20T17:36:21.025Z,16.98
2022-10-20T17:38:47.662Z,16.55
2022-10-20T17:41:15.497Z,20.38
2022-10-20T17:43:42.267Z,18.40
2022-10-20T17:46:11.439Z,14.43
2022-10-20T17:48:38.226Z,16.70
2022-10-20T17:51:10.258Z,14.13
2022-10-20T17:53:41.269Z,13.45
2022-10-20T17:56:12.243Z,11.75
2022-10-20T17:58:39.194Z,15.68
2022-10-20T18:01:12.529Z,10.95
2022-10-20T18:03:39.765Z,17.02
2022-10-20T18:06:11.615Z,13.32
2022-10-20T18:08:38.486Z,14.07
2022-10-20T18:11:09.610Z,9.85
2022-10-20T18:13:38.792Z,11.27
2022-10-20T18:16:09.105Z,10.95
2022-10-20T18:18:35.957Z,10.70
2022-10-20T18:21:02.688Z,11.25
2022-10-20T18:23:29.565Z,14.63
2022-10-20T18:25:57.024Z,11.70
2022-10-20T18:28:23.898Z,9.70
2022-10-20T18:30:53.225Z,12.13
2022-10-20T18:33:25.530Z,8.95
2022-10-20T18:35:52.341Z,16.02
2022-10-20T18:38:19.836Z,11.98
2022-10-20T18:40:46.709Z,10.98
2022-10-20T18:43:13.717Z,14.45
2022-10-20T18:45:40.803Z,11.57
2022-10-20T18:48:07.552Z,13.50
2022-10-20T18:50:34.629Z,15.43
2022-10-20T18:53:02.637Z,12.90
2022-10-20T18:55:29.601Z,13.25
2022-10-20T18:57:56.556Z,18.38
2022-10-20T19:00:23.625Z,10.85
2022-10-20T19:02:51.182Z,12.80
2022-10-20T19:05:20.624Z,18.05
2022-10-20T19:07:47.634Z,14.70
2022-10-20T19:10:14.566Z,12.90
2022-10-20T19:12:41.535Z,14.70
2022-10-20T19:15:08.571Z,12.50
2022-10-20T19:17:35.730Z,12.60
2022-10-20T19:20:02.806Z,14.52
2022-10-20T19:22:29.540Z,11.48
2022-10-20T19:24:56.549Z,11.13
2022-10-20T19:27:27.441Z,14.00
2022-10-20T19:29:54.323Z,15.90
2022-10-20T19:32:21.170Z,15.00
2022-10-20T19:34:47.934Z,10.32
2022-10-20T19:37:14.681Z,12.57
2022-10-20T19:39:41.725Z,10.95
2022-10-20T19:42:10.094Z,13.32
2022-10-20T19:44:36.828Z,15.07
2022-10-20T21:55:41.266Z,15.18
2022-10-20T21:58:07.914Z,16.15
2022-10-20T22:00:34.548Z,15.05
2022-10-20T22:03:04.276Z,13.68
2022-10-20T22:05:30.925Z,15.00
2022-10-20T22:07:57.591Z,12.57
2022-10-20T22:10:24.245Z,13.85
2022-10-20T22:12:51.071Z,18.27
2022-10-20T22:15:17.750Z,16.70
2022-10-20T22:17:44.365Z,13.65
2022-10-20T22:20:11.225Z,15.55
2022-10-20T22:22:38.113Z,14.23
2022-10-20T22:27:42.280Z,20.48
2022-10-20T22:30:10.882Z,14.25
2022-10-20T22:32:37.636Z,17.58
2022-10-20T22:35:04.837Z,16.35
2022-10-20T22:37:31.550Z,20.20
2022-10-20T22:39:58.217Z,14.93
2022-10-20T22:42:25.061Z,20.05
2022-10-20T22:44:51.778Z,16.45
2022-10-20T22:47:18.362Z,17.67
2022-10-20T22:49:44.982Z,23.35
